sensor_id;sensor_type;location;lat;lon;timestamp;pressure;altitude;pressure_sealevel;temperature;humidity
29935;BME280;19905;53.370;-6.314;2023-04-15T00:01:14;100941.59;;;6.06;100.00
29935;BME280;19905;53.370;-6.314;2023-04-15T00:03:46;100948.53;;;6.07;100.00
29935;BME280;19905;53.370;-6.314;2023-04-15T00:06:14;100954.56;;;6.09;100.00
29935;BME280;19905;53.370;-6.314;2023-04-15T00:08:43;100955.56;;;6.07;100.00
29935;BME280;19905;53.370;-6.314;2023-04-15T00:11:12;100964.41;;;6.04;100.00
29935;BME280;19905;53.370;-6.314;2023-04-15T00:13:41;100967.97;;;6.03;100.00
29935;BME280;19905;53.370;-6.314;2023-04-15T00:16:11;100973.41;;;6.00;100.00
29935;BME280;19905;53.370;-6.314;2023-04-15T00:18:40;100978.94;;;5.94;100.00
29935;BME280;19905;53.370;-6.314;2023-04-15T00:21:08;100985.22;;;5.92;100.00
29935;BME280;19905;53.370;-6.314;2023-04-15T00:23:37;100990.75;;;5.85;100.00
29935;BME280;19905;53.370;-6.314;2023-04-15T00:26:06;100991.66;;;5.84;100.00
29935;BME280;19905;53.370;-6.314;2023-04-15T00:28:34;101000.06;;;5.91;100.00
29935;BME280;19905;53.370;-6.314;2023-04-15T00:31:03;101002.66;;;5.93;100.00
29935;BME280;19905;53.370;-6.314;2023-04-15T00:33:33;101007.16;;;5.89;100.00
29935;BME280;19905;53.370;-6.314;2023-04-15T00:36:04;101000.13;;;5.90;100.00
29935;BME280;19905;53.370;-6.314;2023-04-15T00:38:35;101000.56;;;5.82;100.00
29935;BME280;19905;53.370;-6.314;2023-04-15T00:41:04;101001.03;;;5.73;100.00
29935;BME280;19905;53.370;-6.314;2023-04-15T00:43:33;101001.28;;;5.68;100.00
29935;BME280;19905;53.370;-6.314;2023-04-15T00:46:03;101004.19;;;5.62;100.00
29935;BME280;19905;53.370;-6.314;2023-04-15T00:48:35;101008.22;;;5.52;100.00
29935;BME280;19905;53.370;-6.314;2023-04-15T00:51:05;101006.28;;;5.38;100.00
29935;BME280;19905;53.370;-6.314;2023-04-15T00:53:35;101008.75;;;5.41;100.00
29935;BME280;19905;53.370;-6.314;2023-04-15T00:56:05;101010.66;;;5.38;100.00
29935;BME280;19905;53.370;-6.314;2023-04-15T00:58:34;101006.41;;;5.35;100.00
29935;BME280;19905;53.370;-6.314;2023-04-15T01:01:03;101007.91;;;5.23;100.00
29935;BME280;19905;53.370;-6.314;2023-04-15T01:03:34;101010.34;;;5.26;100.00
29935;BME280;19905;53.370;-6.314;2023-04-15T01:06:03;101015.19;;;5.17;100.00
29935;BME280;19905;53.370;-6.314;2023-04-15T01:08:32;101018.88;;;5.13;100.00
29935;BME280;19905;53.370;-6.314;2023-04-15T01:11:01;101022.34;;;5.13;100.00
29935;BME280;19905;53.370;-6.314;2023-04-15T01:13:33;101035.44;;;5.13;100.00
29935;BME280;19905;53.370;-6.314;2023-04-15T01:16:02;101034.44;;;5.16;100.00
29935;BME280;19905;53.370;-6.314;2023-04-15T01:18:31;101038.94;;;5.14;100.00
29935;BME280;19905;53.370;-6.314;2023-04-15T01:21:01;101038.75;;;5.17;100.00
29935;BME280;19905;53.370;-6.314;2023-04-15T01:23:30;101035.22;;;5.18;100.00
29935;BME280;19905;53.370;-6.314;2023-04-15T01:26:00;101044.06;;;5.15;100.00
29935;BME280;19905;53.370;-6.314;2023-04-15T01:28:29;101046.91;;;5.10;100.00
29935;BME280;19905;53.370;-6.314;2023-04-15T01:31:09;101042.84;;;5.05;100.00
29935;BME280;19905;53.370;-6.314;2023-04-15T01:33:39;101050.06;;;5.00;100.00
29935;BME280;19905;53.370;-6.314;2023-04-15T01:36:09;101050.81;;;5.02;100.00
29935;BME280;19905;53.370;-6.314;2023-04-15T01:38:37;101052.81;;;4.97;100.00
29935;BME280;19905;53.370;-6.314;2023-04-15T01:41:08;101058.06;;;4.97;100.00
29935;BME280;19905;53.370;-6.314;2023-04-15T01:43:37;101060.75;;;4.95;100.00
29935;BME280;19905;53.370;-6.314;2023-04-15T01:46:06;101062.50;;;4.95;100.00
29935;BME280;19905;53.370;-6.314;2023-04-15T01:48:34;101069.50;;;4.94;100.00
29935;BME280;19905;53.370;-6.314;2023-04-15T01:51:04;101068.59;;;4.95;100.00
29935;BME280;19905;53.370;-6.314;2023-04-15T01:53:33;101073.97;;;4.92;100.00
29935;BME280;19905;53.370;-6.314;2023-04-15T01:56:02;101075.66;;;4.93;100.00
29935;BME280;19905;53.370;-6.314;2023-04-15T01:58:32;101082.88;;;4.88;100.00
29935;BME280;19905;53.370;-6.314;2023-04-15T02:01:00;101094.13;;;4.90;100.00
29935;BME280;19905;53.370;-6.314;2023-04-15T02:03:30;101105.72;;;4.84;100.00
29935;BME280;19905;53.370;-6.314;2023-04-15T02:05:59;101104.03;;;4.83;100.00
29935;BME280;19905;53.370;-6.314;2023-04-15T02:08:27;101105.00;;;4.81;100.00
29935;BME280;19905;53.370;-6.314;2023-04-15T02:10:56;101107.78;;;4.78;100.00
29935;BME280;19905;53.370;-6.314;2023-04-15T02:13:24;101107.00;;;4.76;100.00
29935;BME280;19905;53.370;-6.314;2023-04-15T02:15:55;101102.78;;;4.73;100.00
29935;BME280;19905;53.370;-6.314;2023-04-15T02:18:25;101105.53;;;4.70;100.00
29935;BME280;19905;53.370;-6.314;2023-04-15T02:20:53;101119.44;;;4.71;100.00
29935;BME280;19905;53.370;-6.314;2023-04-15T02:23:23;101118.09;;;4.62;100.00
29935;BME280;19905;53.370;-6.314;2023-04-15T02:25:52;101110.59;;;4.54;100.00
29935;BME280;19905;53.370;-6.314;2023-04-15T02:28:21;101114.19;;;4.52;100.00
29935;BME280;19905;53.370;-6.314;2023-04-15T02:30:49;101116.06;;;4.50;100.00
29935;BME280;19905;53.370;-6.314;2023-04-15T02:33:21;101111.59;;;4.52;100.00
29935;BME280;19905;53.370;-6.314;2023-04-15T02:35:49;101115.13;;;4.51;100.00
29935;BME280;19905;53.370;-6.314;2023-04-15T02:38:19;101112.38;;;4.54;100.00
29935;BME280;19905;53.370;-6.314;2023-04-15T02:40:47;101116.59;;;4.56;100.00
29935;BME280;19905;53.370;-6.314;2023-04-15T02:43:17;101121.63;;;4.61;100.00
29935;BME280;19905;53.370;-6.314;2023-04-15T02:45:46;101127.00;;;4.58;100.00
29935;BME280;19905;53.370;-6.314;2023-04-15T02:48:15;101125.31;;;4.57;100.00
29935;BME280;19905;53.370;-6.314;2023-04-15T02:50:46;101125.47;;;4.54;100.00
29935;BME280;19905;53.370;-6.314;2023-04-15T02:53:15;101133.56;;;4.48;100.00
29935;BME280;19905;53.370;-6.314;2023-04-15T02:55:44;101130.19;;;4.46;100.00
29935;BME280;19905;53.370;-6.314;2023-04-15T02:58:12;101135.41;;;4.46;100.00
29935;BME280;19905;53.370;-6.314;2023-04-15T03:00:41;101135.44;;;4.44;100.00
29935;BME280;19905;53.370;-6.314;2023-04-15T03:03:09;101136.34;;;4.45;100.00
29935;BME280;19905;53.370;-6.314;2023-04-15T03:05:38;101152.06;;;4.43;100.00
29935;BME280;19905;53.370;-6.314;2023-04-15T03:08:08;101153.72;;;4.46;100.00
29935;BME280;19905;53.370;-6.314;2023-04-15T03:10:37;101158.50;;;4.36;100.00
29935;BME280;19905;53.370;-6.314;2023-04-15T03:13:06;101166.28;;;4.38;100.00
29935;BME280;19905;53.370;-6.314;2023-04-15T03:15:34;101159.41;;;4.35;100.00
29935;BME280;19905;53.370;-6.314;2023-04-15T03:18:03;101165.50;;;4.36;100.00
29935;BME280;19905;53.370;-6.314;2023-04-15T03:20:32;101167.31;;;4.33;100.00
29935;BME280;19905;53.370;-6.314;2023-04-15T03:23:01;101171.78;;;4.31;100.00
29935;BME280;19905;53.370;-6.314;2023-04-15T03:25:32;101185.75;;;4.30;100.00
29935;BME280;19905;53.370;-6.314;2023-04-15T03:28:01;101189.16;;;4.32;100.00
29935;BME280;19905;53.370;-6.314;2023-04-15T03:30:30;101190.19;;;4.28;100.00
29935;BME280;19905;53.370;-6.314;2023-04-15T03:32:59;101192.81;;;4.28;100.00
29935;BME280;19905;53.370;-6.314;2023-04-15T03:35:28;101198.97;;;4.27;100.00
29935;BME280;19905;53.370;-6.314;2023-04-15T03:37:57;101195.69;;;4.22;100.00
29935;BME280;19905;53.370;-6.314;2023-04-15T03:40:25;101206.28;;;4.19;100.00
29935;BME280;19905;53.370;-6.314;2023-04-15T03:42:55;101202.75;;;4.20;100.00
29935;BME280;19905;53.370;-6.314;2023-04-15T03:45:24;101209.16;;;4.13;100.00
29935;BME280;19905;53.370;-6.314;2023-04-15T03:47:53;101216.16;;;4.13;100.00
29935;BME280;19905;53.370;-6.314;2023-04-15T03:50:26;101215.47;;;4.07;100.00
29935;BME280;19905;53.370;-6.314;2023-04-15T03:52:54;101221.63;;;4.06;100.00
29935;BME280;19905;53.370;-6.314;2023-04-15T03:55:23;101229.53;;;4.05;100.00
29935;BME280;19905;53.370;-6.314;2023-04-15T03:57:52;101227.88;;;4.02;100.00
29935;BME280;19905;53.370;-6.314;2023-04-15T04:00:22;101234.94;;;4.00;100.00
29935;BME280;19905;53.370;-6.314;2023-04-15T04:02:50;101236.53;;;4.04;100.00
29935;BME280;19905;53.370;-6.314;2023-04-15T04:05:19;101236.53;;;4.04;100.00
29935;BME280;19905;53.370;-6.314;2023-04-15T04:07:48;101228.81;;;4.01;100.00
29935;BME280;19905;53.370;-6.314;2023-04-15T04:10:16;101235.72;;;4.02;100.00
29935;BME280;19905;53.370;-6.314;2023-04-15T04:12:45;101234.03;;;4.01;100.00
29935;BME280;19905;53.370;-6.314;2023-04-15T04:15:13;101235.06;;;3.97;100.00
29935;BME280;19905;53.370;-6.314;2023-04-15T04:17:43;101238.53;;;3.98;100.00
29935;BME280;19905;53.370;-6.314;2023-04-15T04:20:12;101236.81;;;3.97;100.00
29935;BME280;19905;53.370;-6.314;2023-04-15T04:22:41;101242.16;;;3.94;100.00
29935;BME280;19905;53.370;-6.314;2023-04-15T04:25:09;101245.69;;;3.93;100.00
29935;BME280;19905;53.370;-6.314;2023-04-15T04:27:38;101257.84;;;3.94;100.00
29935;BME280;19905;53.370;-6.314;2023-04-15T04:30:07;101258.66;;;3.96;100.00
29935;BME280;19905;53.370;-6.314;2023-04-15T04:32:36;101255.13;;;3.97;100.00
29935;BME280;19905;53.370;-6.314;2023-04-15T04:35:08;101267.34;;;3.96;100.00
29935;BME280;19905;53.370;-6.314;2023-04-15T04:37:37;101257.66;;;3.98;100.00
29935;BME280;19905;53.370;-6.314;2023-04-15T04:40:07;101263.06;;;3.94;100.00
29935;BME280;19905;53.370;-6.314;2023-04-15T04:42:36;101273.53;;;3.94;100.00
29935;BME280;19905;53.370;-6.314;2023-04-15T04:45:06;101273.59;;;3.92;100.00
29935;BME280;19905;53.370;-6.314;2023-04-15T04:47:36;101277.88;;;3.95;100.00
29935;BME280;19905;53.370;-6.314;2023-04-15T04:50:08;101277.06;;;3.93;100.00
29935;BME280;19905;53.370;-6.314;2023-04-15T04:52:37;101282.38;;;3.91;100.00
29935;BME280;19905;53.370;-6.314;2023-04-15T04:55:06;101284.16;;;3.89;100.00
29935;BME280;19905;53.370;-6.314;2023-04-15T04:57:35;101284.16;;;3.89;100.00
29935;BME280;19905;53.370;-6.314;2023-04-15T05:00:07;101286.84;;;3.88;100.00
29935;BME280;19905;53.370;-6.314;2023-04-15T05:02:36;101286.84;;;3.88;100.00
29935;BME280;19905;53.370;-6.314;2023-04-15T05:05:08;101294.81;;;3.85;100.00
29935;BME280;19905;53.370;-6.314;2023-04-15T05:07:36;101288.69;;;3.86;100.00
29935;BME280;19905;53.370;-6.314;2023-04-15T05:10:07;101298.41;;;3.82;100.00
29935;BME280;19905;53.370;-6.314;2023-04-15T05:12:35;101297.56;;;3.81;100.00
29935;BME280;19905;53.370;-6.314;2023-04-15T05:15:05;101307.88;;;3.85;100.00
29935;BME280;19905;53.370;-6.314;2023-04-15T05:17:34;101317.63;;;3.81;100.00
29935;BME280;19905;53.370;-6.314;2023-04-15T05:20:03;101320.16;;;3.82;100.00
29935;BME280;19905;53.370;-6.314;2023-04-15T05:22:34;101322.84;;;3.81;100.00
29935;BME280;19905;53.370;-6.314;2023-04-15T05:25:02;101326.22;;;3.83;100.00
29935;BME280;19905;53.370;-6.314;2023-04-15T05:27:31;101333.03;;;3.87;100.00
29935;BME280;19905;53.370;-6.314;2023-04-15T05:29:59;101340.72;;;3.92;100.00
29935;BME280;19905;53.370;-6.314;2023-04-15T05:32:28;101345.03;;;3.93;100.00
29935;BME280;19905;53.370;-6.314;2023-04-15T05:34:57;101350.25;;;3.93;100.00
29935;BME280;19905;53.370;-6.314;2023-04-15T05:37:25;101352.00;;;3.92;100.00
29935;BME280;19905;53.370;-6.314;2023-04-15T05:39:55;101354.56;;;3.94;100.00
29935;BME280;19905;53.370;-6.314;2023-04-15T05:42:24;101365.19;;;3.89;100.00
29935;BME280;19905;53.370;-6.314;2023-04-15T05:44:52;101364.41;;;3.87;100.00
29935;BME280;19905;53.370;-6.314;2023-04-15T05:47:21;101368.84;;;3.85;100.00
29935;BME280;19905;53.370;-6.314;2023-04-15T05:49:49;101373.16;;;3.86;100.00
29935;BME280;19905;53.370;-6.314;2023-04-15T05:52:18;101375.78;;;3.86;100.00
29935;BME280;19905;53.370;-6.314;2023-04-15T05:54:47;101377.41;;;3.89;100.00
29935;BME280;19905;53.370;-6.314;2023-04-15T05:57:17;101376.53;;;3.90;100.00
29935;BME280;19905;53.370;-6.314;2023-04-15T05:59:45;101381.75;;;3.90;100.00
29935;BME280;19905;53.370;-6.314;2023-04-15T06:02:15;101387.75;;;3.92;100.00
29935;BME280;19905;53.370;-6.314;2023-04-15T06:04:43;101390.25;;;3.95;100.00
29935;BME280;19905;53.370;-6.314;2023-04-15T06:07:12;101397.19;;;3.96;100.00
29935;BME280;19905;53.370;-6.314;2023-04-15T06:09:41;101406.78;;;3.95;100.00
29935;BME280;19905;53.370;-6.314;2023-04-15T06:12:11;101412.81;;;3.97;100.00
29935;BME280;19905;53.370;-6.314;2023-04-15T06:14:41;101408.38;;;3.99;100.00
29935;BME280;19905;53.370;-6.314;2023-04-15T06:17:10;101403.84;;;4.04;100.00
29935;BME280;19905;53.370;-6.314;2023-04-15T06:19:41;101413.25;;;4.08;100.00
29935;BME280;19905;53.370;-6.314;2023-04-15T06:22:09;101420.09;;;4.13;100.00
29935;BME280;19905;53.370;-6.314;2023-04-15T06:24:38;101422.56;;;4.16;100.00
29935;BME280;19905;53.370;-6.314;2023-04-15T06:27:07;101426.88;;;4.17;100.00
29935;BME280;19905;53.370;-6.314;2023-04-15T06:29:35;101424.88;;;4.23;100.00
29935;BME280;19905;53.370;-6.314;2023-04-15T06:32:06;101428.19;;;4.28;100.00
29935;BME280;19905;53.370;-6.314;2023-04-15T06:34:35;101435.78;;;4.34;100.00
29935;BME280;19905;53.370;-6.314;2023-04-15T06:37:04;101436.44;;;4.40;100.00
29935;BME280;19905;53.370;-6.314;2023-04-15T06:39:32;101446.72;;;4.44;100.00
29935;BME280;19905;53.370;-6.314;2023-04-15T06:42:01;101454.41;;;4.49;100.00
29935;BME280;19905;53.370;-6.314;2023-04-15T06:44:30;101455.09;;;4.54;100.00
29935;BME280;19905;53.370;-6.314;2023-04-15T06:47:00;101461.00;;;4.59;100.00
29935;BME280;19905;53.370;-6.314;2023-04-15T06:49:31;101467.75;;;4.65;100.00
29935;BME280;19905;53.370;-6.314;2023-04-15T06:51:59;101472.97;;;4.65;100.00
29935;BME280;19905;53.370;-6.314;2023-04-15T06:54:28;101477.19;;;4.69;100.00
29935;BME280;19905;53.370;-6.314;2023-04-15T06:56:56;101465.59;;;4.74;100.00
29935;BME280;19905;53.370;-6.314;2023-04-15T06:59:25;101462.91;;;4.76;100.00
29935;BME280;19905;53.370;-6.314;2023-04-15T07:01:54;101473.19;;;4.80;100.00
29935;BME280;19905;53.370;-6.314;2023-04-15T07:04:22;101466.94;;;4.84;100.00
29935;BME280;19905;53.370;-6.314;2023-04-15T07:06:53;101477.28;;;4.88;100.00
29935;BME280;19905;53.370;-6.314;2023-04-15T07:09:23;101479.72;;;4.92;100.00
29935;BME280;19905;53.370;-6.314;2023-04-15T07:11:52;101485.56;;;4.99;100.00
29935;BME280;19905;53.370;-6.314;2023-04-15T07:14:21;101487.00;;;5.06;100.00
29935;BME280;19905;53.370;-6.314;2023-04-15T07:16:50;101486.09;;;5.07;100.00
29935;BME280;19905;53.370;-6.314;2023-04-15T07:19:19;101489.34;;;5.14;100.00
29935;BME280;19905;53.370;-6.314;2023-04-15T07:21:55;101494.88;;;5.26;100.00
29935;BME280;19905;53.370;-6.314;2023-04-15T07:24:24;101505.78;;;5.38;100.00
29935;BME280;19905;53.370;-6.314;2023-04-15T07:26:54;101504.66;;;5.43;100.00
29935;BME280;19905;53.370;-6.314;2023-04-15T07:29:27;101508.56;;;5.55;100.00
29935;BME280;19905;53.370;-6.314;2023-04-15T07:31:55;101505.72;;;5.59;100.00
29935;BME280;19905;53.370;-6.314;2023-04-15T07:34:24;101515.94;;;5.66;100.00
29935;BME280;19905;53.370;-6.314;2023-04-15T07:36:57;101518.25;;;5.73;100.00
29935;BME280;19905;53.370;-6.314;2023-04-15T07:39:26;101518.75;;;5.81;100.00
29935;BME280;19905;53.370;-6.314;2023-04-15T07:41:55;101527.53;;;5.80;100.00
29935;BME280;19905;53.370;-6.314;2023-04-15T07:44:25;101525.44;;;5.89;100.00
29935;BME280;19905;53.370;-6.314;2023-04-15T07:46:55;101530.09;;;6.02;100.00
29935;BME280;19905;53.370;-6.314;2023-04-15T07:49:31;101527.47;;;6.02;100.00
29935;BME280;19905;53.370;-6.314;2023-04-15T07:52:01;101529.69;;;6.11;100.00
29935;BME280;19905;53.370;-6.314;2023-04-15T07:54:30;101531.19;;;6.17;100.00
29935;BME280;19905;53.370;-6.314;2023-04-15T07:56:59;101538.84;;;6.22;100.00
29935;BME280;19905;53.370;-6.314;2023-04-15T07:59:28;101540.94;;;6.34;100.00
29935;BME280;19905;53.370;-6.314;2023-04-15T08:01:59;101537.09;;;6.41;100.00
29935;BME280;19905;53.370;-6.314;2023-04-15T08:04:29;101531.72;;;6.44;100.00
29935;BME280;19905;53.370;-6.314;2023-04-15T08:07:02;101531.19;;;6.55;100.00
29935;BME280;19905;53.370;-6.314;2023-04-15T08:09:31;101543.69;;;6.69;100.00
29935;BME280;19905;53.370;-6.314;2023-04-15T08:12:00;101542.41;;;6.77;100.00
29935;BME280;19905;53.370;-6.314;2023-04-15T08:14:29;101537.78;;;6.82;100.00
29935;BME280;19905;53.370;-6.314;2023-04-15T08:17:00;101531.41;;;6.88;100.00
29935;BME280;19905;53.370;-6.314;2023-04-15T08:19:35;101530.81;;;7.00;100.00
29935;BME280;19905;53.370;-6.314;2023-04-15T08:22:19;101530.34;;;7.09;100.00
29935;BME280;19905;53.370;-6.314;2023-04-15T08:24:48;101533.31;;;7.21;100.00
29935;BME280;19905;53.370;-6.314;2023-04-15T08:27:19;101530.63;;;7.22;100.00
29935;BME280;19905;53.370;-6.314;2023-04-15T08:29:58;101537.28;;;7.29;100.00
29935;BME280;19905;53.370;-6.314;2023-04-15T08:32:35;101532.56;;;7.36;100.00
29935;BME280;19905;53.370;-6.314;2023-04-15T08:35:14;101531.47;;;7.40;100.00
29935;BME280;19905;53.370;-6.314;2023-04-15T08:37:50;101527.69;;;7.46;100.00
29935;BME280;19905;53.370;-6.314;2023-04-15T08:40:23;101533.28;;;7.57;100.00
29935;BME280;19905;53.370;-6.314;2023-04-15T08:43:04;101529.94;;;7.71;100.00
29935;BME280;19905;53.370;-6.314;2023-04-15T08:45:34;101534.50;;;7.84;100.00
29935;BME280;19905;53.370;-6.314;2023-04-15T08:48:04;101532.13;;;7.96;100.00
29935;BME280;19905;53.370;-6.314;2023-04-15T08:50:34;101538.31;;;8.12;100.00
29935;BME280;19905;53.370;-6.314;2023-04-15T08:53:05;101534.50;;;8.18;100.00
29935;BME280;19905;53.370;-6.314;2023-04-15T08:55:37;101532.31;;;8.26;100.00
29935;BME280;19905;53.370;-6.314;2023-04-15T08:58:15;101534.50;;;8.33;100.00
29935;BME280;19905;53.370;-6.314;2023-04-15T09:00:45;101549.78;;;8.44;100.00
29935;BME280;19905;53.370;-6.314;2023-04-15T09:03:15;101544.06;;;8.52;100.00
29935;BME280;19905;53.370;-6.314;2023-04-15T09:05:45;101544.09;;;8.68;100.00
29935;BME280;19905;53.370;-6.314;2023-04-15T09:08:16;101546.22;;;8.77;100.00
29935;BME280;19905;53.370;-6.314;2023-04-15T09:10:46;101533.56;;;8.83;100.00
29935;BME280;19905;53.370;-6.314;2023-04-15T09:13:15;101536.72;;;8.90;100.00
29935;BME280;19905;53.370;-6.314;2023-04-15T09:15:45;101540.78;;;8.96;100.00
29935;BME280;19905;53.370;-6.314;2023-04-15T09:18:27;101535.66;;;9.08;100.00
29935;BME280;19905;53.370;-6.314;2023-04-15T09:21:04;101541.75;;;9.25;100.00
29935;BME280;19905;53.370;-6.314;2023-04-15T09:23:39;101534.94;;;9.21;100.00
29935;BME280;19905;53.370;-6.314;2023-04-15T09:26:08;101532.19;;;9.38;100.00
29935;BME280;19905;53.370;-6.314;2023-04-15T09:28:40;101540.25;;;9.51;100.00
29935;BME280;19905;53.370;-6.314;2023-04-15T09:31:09;101536.53;;;9.69;100.00
29935;BME280;19905;53.370;-6.314;2023-04-15T09:33:53;101536.25;;;9.88;100.00
29935;BME280;19905;53.370;-6.314;2023-04-15T09:36:25;101536.00;;;10.07;100.00
29935;BME280;19905;53.370;-6.314;2023-04-15T09:38:59;101533.47;;;10.19;100.00
29935;BME280;19905;53.370;-6.314;2023-04-15T09:41:28;101540.16;;;10.11;100.00
29935;BME280;19905;53.370;-6.314;2023-04-15T09:43:56;101533.22;;;10.24;100.00
29935;BME280;19905;53.370;-6.314;2023-04-15T09:46:41;101530.94;;;10.32;100.00
29935;BME280;19905;53.370;-6.314;2023-04-15T09:49:12;101534.53;;;10.46;100.00
29935;BME280;19905;53.370;-6.314;2023-04-15T09:51:42;101533.72;;;10.58;100.00
29935;BME280;19905;53.370;-6.314;2023-04-15T09:54:36;101530.31;;;10.70;100.00
29935;BME280;19905;53.370;-6.314;2023-04-15T09:57:06;101534.09;;;10.66;100.00
29935;BME280;19905;53.370;-6.314;2023-04-15T09:59:35;101531.97;;;10.85;100.00
29935;BME280;19905;53.370;-6.314;2023-04-15T10:02:05;101528.84;;;10.93;100.00
29935;BME280;19905;53.370;-6.314;2023-04-15T10:04:37;101523.16;;;10.72;100.00
29935;BME280;19905;53.370;-6.314;2023-04-15T10:07:09;101532.69;;;11.02;100.00
29935;BME280;19905;53.370;-6.314;2023-04-15T10:09:42;101529.44;;;11.11;100.00
29935;BME280;19905;53.370;-6.314;2023-04-15T10:12:14;101528.66;;;11.23;100.00
29935;BME280;19905;53.370;-6.314;2023-04-15T10:14:48;101514.69;;;11.34;100.00
29935;BME280;19905;53.370;-6.314;2023-04-15T10:17:21;101523.00;;;11.55;100.00
29935;BME280;19905;53.370;-6.314;2023-04-15T10:19:52;101525.03;;;11.64;100.00
29935;BME280;19905;53.370;-6.314;2023-04-15T10:22:22;101532.53;;;11.70;100.00
29935;BME280;19905;53.370;-6.314;2023-04-15T10:24:55;101522.66;;;11.47;100.00
29935;BME280;19905;53.370;-6.314;2023-04-15T10:27:23;101517.78;;;11.53;100.00
29935;BME280;19905;53.370;-6.314;2023-04-15T10:29:54;101515.28;;;11.64;100.00
29935;BME280;19905;53.370;-6.314;2023-04-15T10:32:24;101517.81;;;11.66;100.00
29935;BME280;19905;53.370;-6.314;2023-04-15T10:34:54;101517.56;;;11.83;100.00
29935;BME280;19905;53.370;-6.314;2023-04-15T10:37:33;101512.88;;;12.12;100.00
29935;BME280;19905;53.370;-6.314;2023-04-15T10:40:28;101514.44;;;12.28;100.00
29935;BME280;19905;53.370;-6.314;2023-04-15T10:43:01;101522.88;;;12.45;100.00
29935;BME280;19905;53.370;-6.314;2023-04-15T10:45:32;101517.25;;;12.01;100.00
29935;BME280;19905;53.370;-6.314;2023-04-15T10:48:06;101515.84;;;12.08;100.00
29935;BME280;19905;53.370;-6.314;2023-04-15T10:50:36;101525.78;;;12.42;100.00
29935;BME280;19905;53.370;-6.314;2023-04-15T10:53:05;101520.69;;;12.76;100.00
29935;BME280;19905;53.370;-6.314;2023-04-15T10:55:39;101525.88;;;12.78;100.00
29935;BME280;19905;53.370;-6.314;2023-04-15T10:58:09;101512.06;;;12.85;100.00
29935;BME280;19905;53.370;-6.314;2023-04-15T11:00:38;101517.81;;;12.79;100.00
29935;BME280;19905;53.370;-6.314;2023-04-15T11:03:08;101518.94;;;13.12;100.00
29935;BME280;19905;53.370;-6.314;2023-04-15T11:05:51;101522.16;;;13.04;100.00
29935;BME280;19905;53.370;-6.314;2023-04-15T11:08:52;101527.38;;;13.30;100.00
29935;BME280;19905;53.370;-6.314;2023-04-15T11:14:32;101519.13;;;13.21;100.00
29935;BME280;19905;53.370;-6.314;2023-04-15T11:17:03;101519.00;;;12.99;100.00
29935;BME280;19905;53.370;-6.314;2023-04-15T11:19:36;101524.75;;;13.17;100.00
29935;BME280;19905;53.370;-6.314;2023-04-15T11:22:07;101518.03;;;13.48;100.00
29935;BME280;19905;53.370;-6.314;2023-04-15T11:24:36;101512.94;;;13.45;100.00
29935;BME280;19905;53.370;-6.314;2023-04-15T11:27:21;101511.91;;;13.23;100.00
29935;BME280;19905;53.370;-6.314;2023-04-15T11:29:51;101506.44;;;13.49;100.00
29935;BME280;19905;53.370;-6.314;2023-04-15T11:32:20;101507.00;;;13.88;100.00
29935;BME280;19905;53.370;-6.314;2023-04-15T11:34:51;101520.13;;;13.67;100.00
29935;BME280;19905;53.370;-6.314;2023-04-15T11:37:27;101517.44;;;13.56;100.00
29935;BME280;19905;53.370;-6.314;2023-04-15T11:39:57;101527.00;;;13.69;100.00
29935;BME280;19905;53.370;-6.314;2023-04-15T11:42:28;101527.47;;;13.52;100.00
29935;BME280;19905;53.370;-6.314;2023-04-15T11:45:14;101531.69;;;13.55;100.00
29935;BME280;19905;53.370;-6.314;2023-04-15T11:47:43;101528.00;;;13.80;100.00
29935;BME280;19905;53.370;-6.314;2023-04-15T11:50:16;101530.53;;;13.35;100.00
29935;BME280;19905;53.370;-6.314;2023-04-15T11:52:53;101535.72;;;13.36;100.00
29935;BME280;19905;53.370;-6.314;2023-04-15T11:55:23;101535.78;;;13.23;100.00
29935;BME280;19905;53.370;-6.314;2023-04-15T11:58:07;101530.47;;;13.47;100.00
29935;BME280;19905;53.370;-6.314;2023-04-15T12:00:37;101533.34;;;13.56;100.00
29935;BME280;19905;53.370;-6.314;2023-04-15T12:03:14;101532.44;;;13.33;100.00
29935;BME280;19905;53.370;-6.314;2023-04-15T12:06:11;101531.31;;;13.48;100.00
29935;BME280;19905;53.370;-6.314;2023-04-15T12:08:59;101525.31;;;13.57;100.00
29935;BME280;19905;53.370;-6.314;2023-04-15T12:11:34;101523.69;;;13.43;100.00
29935;BME280;19905;53.370;-6.314;2023-04-15T12:14:07;101526.06;;;13.70;100.00
29935;BME280;19905;53.370;-6.314;2023-04-15T12:16:40;101520.06;;;14.13;100.00
29935;BME280;19905;53.370;-6.314;2023-04-15T12:19:23;101523.84;;;13.64;100.00
29935;BME280;19905;53.370;-6.314;2023-04-15T12:21:58;101520.44;;;13.97;100.00
29935;BME280;19905;53.370;-6.314;2023-04-15T12:24:34;101525.91;;;13.61;100.00
29935;BME280;19905;53.370;-6.314;2023-04-15T12:27:05;101531.44;;;13.22;100.00
29935;BME280;19905;53.370;-6.314;2023-04-15T12:29:40;101526.50;;;12.81;100.00
29935;BME280;19905;53.370;-6.314;2023-04-15T12:32:14;101536.09;;;12.95;100.00
29935;BME280;19905;53.370;-6.314;2023-04-15T12:34:48;101539.31;;;13.11;100.00
29935;BME280;19905;53.370;-6.314;2023-04-15T12:37:20;101543.72;;;13.00;100.00
29935;BME280;19905;53.370;-6.314;2023-04-15T12:39:49;101546.53;;;13.09;100.00
29935;BME280;19905;53.370;-6.314;2023-04-15T12:42:18;101544.66;;;12.75;100.00
29935;BME280;19905;53.370;-6.314;2023-04-15T12:44:56;101540.06;;;12.89;100.00
29935;BME280;19905;53.370;-6.314;2023-04-15T12:47:26;101541.97;;;13.24;100.00
29935;BME280;19905;53.370;-6.314;2023-04-15T12:49:55;101548.16;;;13.36;100.00
29935;BME280;19905;53.370;-6.314;2023-04-15T12:52:25;101544.31;;;13.40;100.00
29935;BME280;19905;53.370;-6.314;2023-04-15T12:54:54;101545.47;;;13.12;100.00
29935;BME280;19905;53.370;-6.314;2023-04-15T12:57:23;101549.34;;;13.19;100.00
29935;BME280;19905;53.370;-6.314;2023-04-15T12:59:58;101549.09;;;13.11;100.00